WetterOnline ( http://www.wetteronline.de )

Wetter aktuell Grosseto

Aktuelles Wetter: Grosseto (7m)

6-stündlich | Neueste Meldungen
Ortszeit Temperatur Wetter
Fr, 18.01. 1:00 4.6° C leicht bewölkt
Do, 17.01. 19:00 9.6° C leicht bewölkt
Do, 17.01. 13:00 11.2° C leichter Regen
Do, 17.01. 7:00 9.2° C leichter Regen
Do, 17.01. 1:00 10.0° C leicht bewölkt
Mi, 16.01. 19:00 13.2° C wolkig
Mi, 16.01. 13:00 16.2° C leicht bewölkt
Mi, 16.01. 7:00 -1.8° C wolkenlos
Ortszeit Temperatur Wetter
Fr, 18.01. 1:00 4.6° C leicht bewölkt
Fr, 18.01. 0:55 5° C leicht bewölkt, Dunst
Fr, 18.01. 0:00 6.0° C leicht bewölkt
Do, 17.01. 23:55 6° C leicht bewölkt, Dunst
Do, 17.01. 23:00 7.6° C wolkig
Do, 17.01. 22:55 8° C leicht bewölkt, Dunst
Do, 17.01. 22:00 6.2° C leicht bewölkt
Do, 17.01. 21:55 6° C leicht bewölkt, Dunst
Ortszeit Relative Feuchte Sichtweite
Fr, 18.01. 1:00 87% 4.5 km
Do, 17.01. 19:00 88% 12 km
Do, 17.01. 13:00 87% 5.0 km
Do, 17.01. 7:00 83% 8 km
Do, 17.01. 1:00 85% 10 km
Mi, 16.01. 19:00 72% 30 km
Mi, 16.01. 13:00 58% 50 km
Mi, 16.01. 7:00 90% 30 km
Ortszeit Relative Feuchte Sichtweite
Fr, 18.01. 1:00 87% 4.5 km
Fr, 18.01. 0:55 87% 4.5 km
Fr, 18.01. 0:00 88% 5.0 km
Do, 17.01. 23:55 87% 5.0 km
Do, 17.01. 23:00 89% 5.0 km
Do, 17.01. 22:55 87% 5.0 km
Do, 17.01. 22:00 88% 5.0 km
Do, 17.01. 21:55 87% 5.0 km
Ortszeit Niederschlagsmenge Niederschlagsart
Fr, 18.01. 1:00 0.0 l/m2 in 6 Std. -
Do, 17.01. 19:00 5 l/m2 in 12 Std. -
Do, 17.01. 13:00 5 l/m2 in 6 Std. Regen
Do, 17.01. 7:00 0.2 l/m2 in 12 Std. Regen
Do, 17.01. 1:00 0.0 l/m2 in 6 Std. -
Mi, 16.01. 19:00 0.0 l/m2 in 12 Std. -
Mi, 16.01. 13:00 0.0 l/m2 in 6 Std. -
Mi, 16.01. 7:00 0.0 l/m2 in 12 Std. -
Ortszeit Niederschlagsmenge Niederschlagsart
Fr, 18.01. 1:00 keine Meldung -
Fr, 18.01. 0:55 keine Meldung -
Fr, 18.01. 0:00 keine Meldung -
Do, 17.01. 23:55 keine Meldung -
Do, 17.01. 23:00 keine Meldung -
Do, 17.01. 22:55 keine Meldung -
Do, 17.01. 22:00 keine Meldung -
Do, 17.01. 21:55 keine Meldung -
Ortszeit Stärke Spitze Richtung
km/h Bft. km/h Grad Sektor
Fr, 18.01. 1:00 7 2 - 50° NO
Do, 17.01. 19:00 9 2 - 130° SO
Do, 17.01. 13:00 13 3 - 160° S
Do, 17.01. 7:00 11 2 - 120° SO
Do, 17.01. 1:00 11 2 - 110° O
Mi, 16.01. 19:00 11 2 - 150° SO
Mi, 16.01. 13:00 19 3 - 170° S
Mi, 16.01. 7:00 9 2 - 30° NO
Ortszeit Stärke Spitze Richtung
km/h Bft. km/h Grad Sektor
Fr, 18.01. 1:00 7 2 - 50° NO
Fr, 18.01. 0:55 7 2 - 50° NO
Fr, 18.01. 0:00 6 1 - 340° N
Do, 17.01. 23:55 6 1 - 340° N
Do, 17.01. 23:00 6 1 - 100° O
Do, 17.01. 22:55 6 1 - 100° O
Do, 17.01. 22:00 9 2 - 30° NO
Do, 17.01. 21:55 9 2 - 30° NO
Ortszeit Untergrenze Bedeckung Gattung
total tief tief mittel hoch
Fr, 18.01. 1:00 750 m 3/8 2/8 Cu Ac -
Do, 17.01. 19:00 300 m 3/8 3/8 Cu - -
Do, 17.01. 13:00 300 m 8/8 8/8 Cb - -
Do, 17.01. 7:00 450 m 6/8 2/8 Cu - -
Do, 17.01. 1:00 1200 m 4/8 2/8 Cu As -
Mi, 16.01. 19:00 750 m 6/8 6/8 Cu - -
Mi, 16.01. 13:00 900 m 3/8 3/8 Cu - -
Mi, 16.01. 7:00 - 0/8 0/8 - - -
Ortszeit Bedeckungsgrad in Achtel und Wolkenuntergrenze
Fr, 18.01. 1:00 2(750m) 3(2100m)
Fr, 18.01. 0:55 1-2(750m)
Fr, 18.01. 0:00 1(750m)
Do, 17.01. 23:55 1-2(750m)
Do, 17.01. 23:00 1(750m) 5(2700m)
Do, 17.01. 22:55 1-2(750m)
Do, 17.01. 22:00 1(750m) 4(2700m)
Do, 17.01. 21:55 1-2(750m)
Ortszeit Luftdruck NN (hPa) Tendenz (hPa in 3 Std.)
Fr, 18.01. 1:00 1012 - 0,7
Do, 17.01. 19:00 1013 - 0,7
Do, 17.01. 13:00 1014 - 2,2
Do, 17.01. 7:00 1017 - 1,7
Do, 17.01. 1:00 1019 - 0,7
Mi, 16.01. 19:00 1020 - 0,2
Mi, 16.01. 13:00 1021 - 1,4
Mi, 16.01. 7:00 1022 - 0,2
Ortszeit Luftdruck NN (hPa) Tendenz (hPa in 3 Std.)
Fr, 18.01. 1:00 1012 - 0,7
Fr, 18.01. 0:55 1011 keine Meldung
Fr, 18.01. 0:00 1012 - 0,2
Do, 17.01. 23:55 1012 keine Meldung
Do, 17.01. 23:00 1012 - 0,5
Do, 17.01. 22:55 1012 keine Meldung
Do, 17.01. 22:00 1013 - 0,3
Do, 17.01. 21:55 1012 keine Meldung
Ortszeit Schneehöhe (cm)
Fr, 18.01. 1:00 -
Do, 17.01. 19:00 -
Do, 17.01. 13:00 -
Do, 17.01. 7:00 0
Do, 17.01. 1:00 -
Mi, 16.01. 19:00 -
Mi, 16.01. 13:00 -
Mi, 16.01. 7:00 0
Ortszeit Schneehöhe (cm)
Fr, 18.01. 1:00 -
Fr, 18.01. 0:55 -
Fr, 18.01. 0:00 -
Do, 17.01. 23:55 -
Do, 17.01. 23:00 -
Do, 17.01. 22:55 -
Do, 17.01. 22:00 -
Do, 17.01. 21:55 -
Link zu dieser Seite / Seite empfehlen

Das Wetter in ...